KCLT

Charlotte/Douglas International Airport

Charlotte, North Carolina, USA
METAR KCLT 151852Z 30003KT 10SM SCT160 BKN200 OVC250 08/M02 A2994 RMK AO2 SLP138 T00831022
Observed Flight Rules
Dec-15 @ 18:52 UTC (an hour ago) Visual Flight Rules
Wind Visibility Clouds
300° at 3 knots 10 miles
  • Scattered at 16,000' AGL
  • Broken at 20,000' AGL
  • Overcast at 25,000' AGL
Temperatures Readings
Current 8°C / 46°F
Dewpoint -2°C / 28°F
Humidity 50%
Altimeter 29.94" Hg
Pressure 1013.8 hPa
Elevation 220
METAR KCLT 151852Z 30003KT 10SM SCT160 BKN200 OVC250 08/M02 A2994 RMK AO2 SLP138 T00831022
Observed Flight Rules
Dec-15 @ 18:52 UTC
(an hour ago)
VFR
Wind Visibility
300° at 3 knots 10 miles
Clouds
  • Scattered at 16,000' AGL
  • Broken at 20,000' AGL
  • Overcast at 25,000' AGL
Temperature Dewpoint
8°C / 46°F -2°C / 28°F
Humidity Altimeter Pressure
50% 29.94" Hg 1013.8 hPa